Time;durP1;ratioP1;P1;durP2;ratioP2;P2;SDS_P1;SDS_P2;PMS_P1;PMS_P2;Temp;Humidity;BMP_temperature;BMP_pressure;BME280_temperature;BME280_humidity;BME280_pressure;Samples;Min_cycle;Max_cycle;Signal;HPM_P1;HPM_P2
2022/08/11 00:01:25;;;;;;;2.83;2.63;;;14.80;79.20;;;;;;5073250;28;20025;-90
2022/08/11 00:03:57;;;;;;;3.30;3.00;;;14.70;79.50;;;;;;5092638;28;20069;-90
2022/08/11 00:06:35;;;;;;;7.28;2.85;;;14.60;80.00;;;;;;5088960;28;20096;-90
2022/08/11 00:09:06;;;;;;;3.55;3.05;;;14.60;81.80;;;;;;5092096;28;20036;-91
2022/08/11 00:11:53;;;;;;;7.88;3.35;;;14.50;83.00;;;;;;5093195;28;20115;-90
2022/08/11 00:14:23;;;;;;;5.55;3.05;;;14.40;83.40;;;;;;5067286;28;20032;-90
2022/08/11 00:17:08;;;;;;;4.05;3.10;;;14.40;84.70;;;;;;5084701;28;20027;-90
2022/08/11 00:19:38;;;;;;;6.10;3.55;;;14.30;85.20;;;;;;5081419;28;20097;-90
2022/08/11 00:22:08;;;;;;;3.60;3.30;;;14.20;85.80;;;;;;5061134;28;20020;-90
2022/08/11 00:24:36;;;;;;;4.55;3.40;;;14.20;86.00;;;;;;5073742;28;20135;-90
2022/08/11 00:27:03;;;;;;;5.13;3.20;;;14.20;87.10;;;;;;5078996;28;20248;-90
2022/08/11 00:29:29;;;;;;;5.50;3.17;;;14.10;87.10;;;;;;5068216;28;20068;-90
2022/08/11 00:31:57;;;;;;;5.35;3.30;;;14.10;87.70;;;;;;5089174;28;20020;-90
2022/08/11 00:34:26;;;;;;;4.72;2.78;;;14.10;88.00;;;;;;5091449;28;20755;-90
2022/08/11 00:37:10;;;;;;;4.05;3.65;;;14.00;89.00;;;;;;5084853;28;20056;-90
2022/08/11 00:39:43;;;;;;;4.10;3.53;;;14.00;89.70;;;;;;5085771;28;20034;-90
2022/08/11 00:42:14;;;;;;;3.72;3.10;;;13.90;90.50;;;;;;5087036;28;20045;-90
2022/08/11 00:45:09;;;;;;;3.92;3.38;;;13.90;90.60;;;;;;5080866;28;20028;-90
2022/08/11 00:47:54;;;;;;;4.32;3.30;;;13.80;91.70;;;;;;5069587;28;20024;-89
2022/08/11 00:50:38;;;;;;;3.67;3.33;;;13.70;91.90;;;;;;5084269;28;20032;-89
2022/08/11 00:53:41;;;;;;;7.20;3.55;;;13.70;92.50;;;;;;5081562;28;20032;-89
2022/08/11 00:56:28;;;;;;;4.93;3.83;;;13.60;93.30;;;;;;5089274;28;20042;-89
2022/08/11 00:59:27;;;;;;;8.55;4.15;;;13.50;93.30;;;;;;5078559;28;20081;-90
2022/08/11 01:02:18;;;;;;;5.28;3.55;;;13.40;93.80;;;;;;5077205;28;20016;-89
2022/08/11 01:04:59;;;;;;;4.50;3.70;;;13.40;93.60;;;;;;5084034;28;20072;-89
2022/08/11 01:07:32;;;;;;;3.85;3.53;;;13.40;94.90;;;;;;5066322;28;20255;-89
2022/08/11 01:10:02;;;;;;;6.68;3.92;;;13.30;94.80;;;;;;5085730;28;20019;-89
2022/08/11 01:12:48;;;;;;;3.72;3.40;;;13.30;95.30;;;;;;5081597;28;20047;-89
2022/08/11 01:15:24;;;;;;;4.30;3.90;;;13.30;95.80;;;;;;5075363;28;20032;-89
2022/08/11 01:17:50;;;;;;;5.22;3.80;;;13.20;96.20;;;;;;5078628;28;20024;-89
2022/08/11 01:20:34;;;;;;;3.78;3.47;;;13.20;96.10;;;;;;5078961;28;20020;-88
2022/08/11 01:23:20;;;;;;;7.05;4.20;;;13.20;96.20;;;;;;5078909;28;20786;-89
2022/08/11 01:25:54;;;;;;;5.53;3.80;;;13.20;96.40;;;;;;5075948;28;20635;-89
2022/08/11 01:28:56;;;;;;;4.05;3.72;;;13.10;96.50;;;;;;5054949;28;20032;-88
2022/08/11 01:31:52;;;;;;;3.67;3.45;;;13.10;97.00;;;;;;5089410;28;20034;-89
2022/08/11 01:34:49;;;;;;;5.18;4.07;;;13.10;97.90;;;;;;5085099;28;20024;-89
2022/08/11 01:37:53;;;;;;;5.32;3.65;;;13.00;98.50;;;;;;5076776;28;20111;-89
2022/08/11 01:40:36;;;;;;;5.57;3.80;;;12.90;99.10;;;;;;5080677;28;20099;-89
2022/08/11 01:46:45;;;;;;;5.35;3.95;;;12.80;99.50;;;;;;5087664;28;20036;-89
2022/08/11 01:49:23;;;;;;;4.57;4.18;;;12.80;99.90;;;;;;5087123;28;20020;-89
2022/08/11 01:51:52;;;;;;;7.00;3.78;;;12.70;99.90;;;;;;5072857;28;20028;-88
2022/08/11 01:54:26;;;;;;;4.50;4.20;;;12.70;99.90;;;;;;5081035;28;20028;-89
2022/08/11 01:57:16;;;;;;;4.88;4.30;;;12.70;99.90;;;;;;5083830;28;20024;-89
2022/08/11 01:59:55;;;;;;;4.43;4.03;;;12.70;99.90;;;;;;5068159;28;20178;-87
2022/08/11 02:02:59;;;;;;;5.20;4.80;;;12.70;99.90;;;;;;5058409;28;20032;-89
2022/08/11 02:06:00;;;;;;;5.57;5.07;;;12.60;99.90;;;;;;5087108;28;20115;-86
2022/08/11 02:08:48;;;;;;;5.80;5.13;;;12.60;99.90;;;;;;5062126;28;20496;-88
2022/08/11 02:11:40;;;;;;;6.03;5.47;;;12.50;99.90;;;;;;5089340;28;20055;-88
2022/08/11 02:14:19;;;;;;;4.60;4.30;;;12.40;99.90;;;;;;5074974;28;20027;-88
2022/08/11 02:17:13;;;;;;;6.20;5.70;;;12.30;99.90;;;;;;5072924;28;20388;-88
2022/08/11 02:26:15;;;;;;;5.78;5.28;;;12.10;99.90;;;;;;5087965;28;20063;-87
2022/08/11 02:29:04;;;;;;;7.63;5.43;;;12.00;99.90;;;;;;5079309;28;20032;-88
2022/08/11 02:34:38;;;;;;;5.75;5.35;;;11.90;99.90;;;;;;5081008;28;20463;-87
2022/08/11 02:37:04;;;;;;;5.40;5.00;;;11.90;99.90;;;;;;5090646;28;20463;-89
2022/08/11 02:39:41;;;;;;;6.75;5.57;;;11.90;99.90;;;;;;5073668;28;20024;-89
2022/08/11 02:42:22;;;;;;;8.05;5.65;;;11.90;99.90;;;;;;5088256;28;20039;-87
2022/08/11 02:45:10;;;;;;;6.05;5.45;;;11.90;99.90;;;;;;5073630;28;20036;-89
2022/08/11 02:50:50;;;;;;;9.20;5.45;;;11.80;99.90;;;;;;5081266;28;20502;-87
2022/08/11 02:53:36;;;;;;;6.72;5.93;;;11.70;99.90;;;;;;5075929;28;20353;-89
2022/08/11 02:56:22;;;;;;;5.93;5.53;;;11.70;99.90;;;;;;5082449;28;20496;-89
2022/08/11 03:01:57;;;;;;;8.70;5.78;;;11.60;99.90;;;;;;5082730;28;20061;-88
2022/08/11 03:04:34;;;;;;;6.90;5.63;;;11.50;99.90;;;;;;5074307;28;20040;-89
2022/08/11 03:07:22;;;;;;;6.85;6.32;;;11.50;99.90;;;;;;5089128;28;20088;-89
2022/08/11 03:10:10;;;;;;;6.70;6.00;;;11.40;99.90;;;;;;5064520;28;20035;-88
2022/08/11 03:18:44;;;;;;;7.40;6.50;;;11.30;99.90;;;;;;5054419;28;20396;-88
2022/08/11 03:21:35;;;;;;;6.22;5.82;;;11.30;99.90;;;;;;5073543;28;20422;-88
2022/08/11 03:24:23;;;;;;;7.07;6.53;;;11.30;99.90;;;;;;5080455;28;20481;-88
2022/08/11 03:27:02;;;;;;;7.28;6.43;;;11.30;99.90;;;;;;5062184;28;20255;-88
2022/08/11 03:29:34;;;;;;;7.20;6.70;;;11.30;99.90;;;;;;5087956;28;20506;-89
2022/08/11 03:32:37;;;;;;;7.90;6.90;;;11.30;99.90;;;;;;5079050;28;20044;-89
2022/08/11 03:35:05;;;;;;;7.78;6.95;;;11.30;99.90;;;;;;5069235;28;20017;-89
2022/08/11 03:38:07;;;;;;;8.02;6.85;;;11.20;99.90;;;;;;5084728;28;20111;-89
2022/08/11 03:44:09;;;;;;;8.52;6.72;;;11.10;99.90;;;;;;5075229;28;20081;-89
2022/08/11 03:46:58;;;;;;;6.90;6.40;;;11.10;99.90;;;;;;5083432;28;20376;-88
2022/08/11 03:49:53;;;;;;;7.45;6.93;;;11.00;99.90;;;;;;5073802;28;20039;-88
2022/08/11 03:52:22;;;;;;;7.60;7.00;;;11.00;99.90;;;;;;5063975;28;20024;-89
2022/08/11 03:55:00;;;;;;;6.60;6.10;;;10.90;99.90;;;;;;5089530;28;20040;-89
2022/08/11 03:57:55;;;;;;;7.10;6.50;;;10.90;99.90;;;;;;5063949;28;20024;-88
2022/08/11 04:00:55;;;;;;;7.43;6.82;;;10.90;99.90;;;;;;5088745;28;20043;-89
2022/08/11 04:03:49;;;;;;;7.00;6.50;;;10.90;99.90;;;;;;5086362;28;20437;-88
2022/08/11 04:06:36;;;;;;;7.60;6.90;;;10.90;99.90;;;;;;5081597;28;20028;-88
2022/08/11 04:09:40;;;;;;;7.97;7.38;;;10.90;99.90;;;;;;5080496;28;20081;-90
2022/08/11 04:12:30;;;;;;;6.78;6.28;;;10.90;99.90;;;;;;5062340;28;20112;-89
2022/08/11 04:16:01;;;;;;;13.00;7.70;;;10.90;99.90;;;;;;5088792;28;20094;-89
2022/08/11 04:18:39;;;;;;;8.23;6.80;;;10.90;99.90;;;;;;5075359;28;20476;-89
2022/08/11 04:21:08;;;;;;;8.18;7.20;;;10.90;99.90;;;;;;5086950;28;20391;-89
2022/08/11 04:23:48;;;;;;;7.57;6.97;;;10.90;99.90;;;;;;5082685;28;20078;-89
2022/08/11 04:26:32;;;;;;;7.63;6.88;;;10.90;99.90;;;;;;5082148;28;20028;-88
2022/08/11 04:29:23;;;;;;;7.53;6.95;;;10.90;99.90;;;;;;5063625;28;20049;-89
2022/08/11 04:31:52;;;;;;;7.47;6.88;;;10.90;99.90;;;;;;5074993;28;20024;-90
2022/08/11 04:34:35;;;;;;;7.95;7.30;;;10.90;99.90;;;;;;5086690;28;20081;-89
2022/08/11 04:37:34;;;;;;;7.07;6.57;;;10.90;99.90;;;;;;5084154;28;20020;-89
2022/08/11 04:40:19;;;;;;;7.32;6.72;;;10.90;99.90;;;;;;5089432;28;20040;-88
2022/08/11 04:46:05;;;;;;;8.25;7.38;;;11.00;99.90;;;;;;5088774;28;20038;-89
2022/08/11 05:01:40;;;;;;;7.75;7.15;;;11.20;99.90;;;;;;5071437;28;20102;-89
2022/08/11 05:05:39;;;;;;;8.13;7.38;;;11.20;99.90;;;;;;5077053;28;20017;-89
2022/08/11 05:08:05;;;;;;;7.28;6.78;;;11.40;99.90;;;;;;5085016;28;20032;-89
2022/08/11 05:11:01;;;;;;;6.60;5.85;;;11.70;99.90;;;;;;5082510;28;20020;-89
2022/08/11 05:37:09;;;;;;;3.92;3.63;;;21.20;72.20;;;;;;5072005;28;20039;-91
2022/08/11 05:56:54;;;;;;;3.58;3.30;;;26.50;53.80;;;;;;5086344;28;20051;-91
2022/08/11 05:59:22;;;;;;;8.48;3.00;;;27.20;53.20;;;;;;5085986;28;20420;-91
2022/08/11 06:01:49;;;;;;;4.50;3.15;;;28.00;50.50;;;;;;5072982;28;20051;-91
2022/08/11 06:04:21;;;;;;;3.15;2.80;;;28.40;48.70;;;;;;5084679;28;20020;-91
2022/08/11 06:06:55;;;;;;;4.35;2.88;;;28.50;47.90;;;;;;5088585;28;20113;-91
2022/08/11 06:09:26;;;;;;;5.10;3.00;;;28.70;47.50;;;;;;5085028;28;20063;-91
2022/08/11 06:11:52;;;;;;;;;;;28.90;48.10;;;;;;5074231;28;20028;-91
2022/08/11 06:14:20;;;;;;;2.55;2.35;;;29.20;47.70;;;;;;5101696;28;19919;-92
2022/08/11 06:16:51;;;;;;;2.63;2.25;;;30.10;46.30;;;;;;5094518;28;20021;-92
2022/08/11 06:19:22;;;;;;;3.13;2.50;;;30.90;45.20;;;;;;5071259;28;20123;-93
2022/08/11 06:21:51;;;;;;;2.83;2.63;;;31.40;44.20;;;;;;5089353;28;20020;-91
2022/08/11 06:24:17;;;;;;;2.60;2.40;;;32.10;43.20;;;;;;5088608;28;20792;-92
2022/08/11 06:26:51;;;;;;;4.78;2.33;;;32.30;42.00;;;;;;5082287;28;20044;-92
2022/08/11 06:29:17;;;;;;;2.83;2.10;;;32.50;41.00;;;;;;5077486;28;20042;-93
2022/08/11 06:32:03;;;;;;;2.25;2.03;;;32.70;40.90;;;;;;5071341;28;20460;-92
2022/08/11 06:34:51;;;;;;;3.78;2.38;;;33.50;40.70;;;;;;5088100;28;20032;-92
2022/08/11 06:37:45;;;;;;;1.88;1.77;;;33.60;39.20;;;;;;5078269;28;20086;-93
2022/08/11 06:40:36;;;;;;;8.35;2.15;;;33.70;39.50;;;;;;5069540;28;20024;-93
2022/08/11 06:43:22;;;;;;;6.90;1.80;;;34.00;39.70;;;;;;5091917;28;20380;-92
2022/08/11 06:45:56;;;;;;;3.78;1.80;;;34.40;38.50;;;;;;5062951;28;20079;-93
2022/08/11 06:48:23;;;;;;;3.22;1.65;;;34.60;38.40;;;;;;5076225;28;20112;-93
2022/08/11 06:51:11;;;;;;;3.30;1.67;;;34.70;37.40;;;;;;5080092;28;20090;-92
2022/08/11 06:53:49;;;;;;;2.85;1.60;;;35.00;37.40;;;;;;5091980;28;20040;-93
2022/08/11 07:02:17;;;;;;;2.13;1.70;;;36.10;35.80;;;;;;5094541;28;20027;-93
2022/08/11 07:05:07;;;;;;;3.30;1.70;;;36.30;35.60;;;;;;5098512;28;20604;-93
2022/08/11 07:16:28;;;;;;;5.32;1.50;;;36.60;35.00;;;;;;5094314;28;20438;-94
2022/08/11 07:30:12;;;;;;;2.75;1.30;;;39.40;31.90;;;;;;5097843;28;20066;-92
2022/08/11 07:32:49;;;;;;;1.60;1.40;;;39.80;31.20;;;;;;5072248;28;20507;-93
2022/08/11 07:35:26;;;;;;;2.55;1.30;;;39.40;31.10;;;;;;5075369;28;20555;-93
2022/08/11 07:38:00;;;;;;;4.55;1.40;;;40.30;31.50;;;;;;5092460;28;20132;-93
2022/08/11 07:40:26;;;;;;;2.05;1.30;;;41.10;30.40;;;;;;5092003;28;20028;-93
2022/08/11 07:42:54;;;;;;;3.65;1.55;;;41.80;30.20;;;;;;5082857;28;20020;-94
2022/08/11 07:53:38;;;;;;;2.50;1.25;;;42.10;29.30;;;;;;5089928;28;20036;-94
2022/08/11 07:56:06;;;;;;;4.50;1.27;;;41.60;28.70;;;;;;5076280;28;20112;-93
2022/08/11 08:18:00;;;;;;;2.67;0.98;;;37.50;32.80;;;;;;5089132;28;20039;-92
2022/08/11 08:20:33;;;;;;;2.25;1.30;;;36.30;31.20;;;;;;5080992;28;20813;-93
2022/08/11 08:23:01;;;;;;;3.42;1.38;;;34.40;32.50;;;;;;5081235;28;20489;-91
2022/08/11 08:25:32;;;;;;;2.15;1.55;;;33.80;34.90;;;;;;5079233;28;20081;-92
2022/08/11 08:27:59;;;;;;;1.60;1.20;;;34.90;34.10;;;;;;5074284;28;20090;-93
2022/08/11 08:33:13;;;;;;;1.67;1.20;;;32.30;34.80;;;;;;5082460;28;20082;-92
2022/08/11 08:35:41;;;;;;;1.95;1.27;;;32.30;36.20;;;;;;5081024;28;20024;-92
2022/08/11 08:38:07;;;;;;;2.13;1.10;;;32.50;35.70;;;;;;5088064;28;20031;-92
2022/08/11 08:40:33;;;;;;;5.20;1.20;;;32.80;35.20;;;;;;5085257;28;20017;-92
2022/08/11 08:43:06;;;;;;;3.83;1.70;;;32.00;35.40;;;;;;5086666;28;20694;-91
2022/08/11 08:45:35;;;;;;;2.83;1.35;;;32.10;35.40;;;;;;5090021;28;20036;-92
2022/08/11 08:48:05;;;;;;;2.17;1.33;;;31.40;36.20;;;;;;5074597;28;20029;-93
2022/08/11 08:53:31;;;;;;;3.45;1.40;;;31.80;36.10;;;;;;5083893;28;20063;-92
2022/08/11 08:55:59;;;;;;;1.63;1.30;;;32.50;35.60;;;;;;5091364;28;20040;-93
2022/08/11 08:58:26;;;;;;;2.45;1.50;;;32.70;34.60;;;;;;5068567;28;20786;-94
2022/08/11 09:00:55;;;;;;;2.50;1.20;;;32.40;35.00;;;;;;5082091;28;20123;-90
2022/08/11 09:03:22;;;;;;;3.38;1.20;;;33.00;35.50;;;;;;5073058;28;20355;-91
2022/08/11 09:05:48;;;;;;;2.33;1.30;;;33.30;34.90;;;;;;5084512;28;20032;-92
2022/08/11 09:08:18;;;;;;;2.45;1.35;;;32.40;34.60;;;;;;5087480;28;20032;-91
2022/08/11 09:10:45;;;;;;;;;;;31.80;36.40;;;;;;5084574;28;20476;-92
2022/08/11 09:13:13;;;;;;;1.60;1.20;;;31.60;35.40;;;;;;5083096;28;20364;-93
2022/08/11 09:15:39;;;;;;;1.95;1.23;;;31.70;36.60;;;;;;5086932;28;20024;-91
2022/08/11 09:18:08;;;;;;;4.50;1.40;;;31.60;36.30;;;;;;5072576;28;20028;-91
2022/08/11 09:20:35;;;;;;;3.40;1.48;;;31.70;35.80;;;;;;5064590;28;20029;-92
2022/08/11 09:28:44;;;;;;;2.33;1.20;;;33.30;33.90;;;;;;5088227;28;20062;-90
2022/08/11 09:31:13;;;;;;;1.40;1.17;;;32.80;33.70;;;;;;5081365;28;20436;-90
2022/08/11 09:33:41;;;;;;;1.83;1.30;;;32.90;34.10;;;;;;5087052;28;20020;-91
2022/08/11 09:41:46;;;;;;;3.63;1.10;;;32.00;35.30;;;;;;5086003;28;20039;-92
2022/08/11 09:47:00;;;;;;;3.17;1.20;;;31.10;36.20;;;;;;5083158;28;20038;-90
2022/08/11 09:49:27;;;;;;;3.38;1.35;;;31.60;35.30;;;;;;5089897;28;20020;-91
2022/08/11 09:51:53;;;;;;;2.70;1.33;;;31.90;34.10;;;;;;5083537;28;20052;-92
2022/08/11 09:54:22;;;;;;;6.10;1.15;;;30.90;35.30;;;;;;5084839;28;20020;-92
2022/08/11 09:59:35;;;;;;;2.47;1.17;;;30.70;37.30;;;;;;5079421;28;20422;-92
2022/08/11 10:02:03;;;;;;;2.25;1.30;;;30.50;35.90;;;;;;5074714;28;20036;-92
2022/08/11 10:04:47;;;;;;;3.72;1.20;;;31.10;37.30;;;;;;5091153;28;20028;-91
2022/08/11 10:07:15;;;;;;;3.58;1.50;;;31.90;34.70;;;;;;5076599;28;20036;-91
2022/08/11 10:10:07;;;;;;;1.13;1.00;;;31.40;33.90;;;;;;5084798;28;20047;-91
2022/08/11 10:12:41;;;;;;;1.85;1.15;;;31.30;34.10;;;;;;5076699;28;20119;-91
2022/08/11 10:20:49;;;;;;;3.55;1.10;;;30.80;35.10;;;;;;5082590;28;20102;-93
2022/08/11 10:28:58;;;;;;;5.55;1.15;;;30.70;35.60;;;;;;5057153;28;20032;-92
2022/08/11 10:34:10;;;;;;;4.50;1.27;;;30.90;35.50;;;;;;5084027;28;20027;-91
2022/08/11 10:36:50;;;;;;;3.70;1.33;;;30.80;35.50;;;;;;5090516;28;20312;-92
2022/08/11 10:39:19;;;;;;;2.47;1.30;;;30.20;36.80;;;;;;5089300;28;20086;-92
2022/08/11 10:44:45;;;;;;;5.65;1.35;;;31.40;35.70;;;;;;5085698;28;20155;-92
2022/08/11 11:01:03;;;;;;;5.70;1.25;;;32.20;33.30;;;;;;5089282;28;20089;-91
2022/08/11 11:03:30;;;;;;;6.70;1.20;;;31.90;34.00;;;;;;5078020;28;20028;-92
2022/08/11 11:06:24;;;;;;;3.78;1.13;;;32.30;34.50;;;;;;5100560;28;20025;-92
2022/08/11 11:09:09;;;;;;;7.03;1.40;;;32.00;34.60;;;;;;5091101;28;20047;-91
2022/08/11 11:20:13;;;;;;;6.30;1.52;;;30.90;36.00;;;;;;5084564;28;20032;-91
2022/08/11 11:22:41;;;;;;;2.33;1.30;;;30.40;36.30;;;;;;5069671;28;20103;-91
2022/08/11 11:25:29;;;;;;;4.43;1.45;;;30.40;36.90;;;;;;5088979;28;20035;-91
2022/08/11 11:28:31;;;;;;;1.50;1.38;;;30.10;36.70;;;;;;5086898;28;20059;-92
2022/08/11 11:31:03;;;;;;;3.67;1.50;;;30.10;37.60;;;;;;5094027;28;20122;-91
2022/08/11 11:34:04;;;;;;;1.25;1.15;;;30.60;36.60;;;;;;5078828;28;20047;-90
2022/08/11 11:36:50;;;;;;;2.72;1.30;;;30.90;36.80;;;;;;5062021;28;20081;-90
2022/08/11 11:39:27;;;;;;;2.30;1.00;;;31.10;34.90;;;;;;5083169;28;20028;-90
2022/08/11 11:41:55;;;;;;;2.95;1.20;;;31.30;35.20;;;;;;5091777;28;20040;-90
2022/08/11 11:44:22;;;;;;;2.55;1.30;;;31.30;34.50;;;;;;5084971;28;20028;-91
2022/08/11 11:46:50;;;;;;;5.40;1.30;;;31.40;35.70;;;;;;5084802;28;20029;-92
2022/08/11 11:49:18;;;;;;;2.10;1.88;;;31.50;34.90;;;;;;5070852;28;20074;-91
2022/08/11 11:51:46;;;;;;;1.58;1.10;;;31.50;35.00;;;;;;5082225;28;20024;-92
2022/08/11 11:54:16;;;;;;;4.18;1.20;;;31.90;34.40;;;;;;5083522;28;20033;-92
2022/08/11 11:56:44;;;;;;;3.40;1.63;;;31.80;34.20;;;;;;5083190;28;20036;-91
2022/08/11 12:01:56;;;;;;;1.95;1.08;;;30.40;35.90;;;;;;5082901;28;20097;-91
2022/08/11 12:04:23;;;;;;;3.15;1.30;;;30.50;36.20;;;;;;5087407;28;20028;-90
2022/08/11 12:06:51;;;;;;;3.97;1.25;;;30.40;35.80;;;;;;5085180;28;20035;-90
2022/08/11 12:09:22;;;;;;;1.52;1.33;;;30.50;35.90;;;;;;5082368;28;20028;-90
2022/08/11 12:14:35;;;;;;;1.27;1.10;;;30.60;35.80;;;;;;5085396;28;20112;-90
2022/08/11 12:17:01;;;;;;;4.05;1.45;;;31.30;34.80;;;;;;5083728;28;20551;-90
2022/08/11 12:19:27;;;;;;;1.20;1.10;;;31.10;34.60;;;;;;5084660;28;20036;-91
2022/08/11 12:27:29;;;;;;;1.90;1.10;;;30.50;35.60;;;;;;5090271;28;20051;-91
2022/08/11 12:30:05;;;;;;;2.75;1.35;;;30.30;36.00;;;;;;5088535;28;20035;-91
2022/08/11 12:32:33;;;;;;;2.03;1.00;;;30.30;36.70;;;;;;5081668;28;20035;-92
2022/08/11 12:35:00;;;;;;;1.45;1.15;;;30.30;35.70;;;;;;5082342;28;20116;-91
2022/08/11 12:37:30;;;;;;;2.40;1.40;;;30.20;35.40;;;;;;5083146;28;20024;-91
2022/08/11 12:45:36;;;;;;;3.50;1.50;;;31.10;37.20;;;;;;5090102;28;20515;-92
2022/08/11 12:53:53;;;;;;;2.08;1.23;;;30.70;35.10;;;;;;5083972;28;20040;-91
2022/08/11 13:04:58;;;;;;;2.58;1.38;;;30.90;36.00;;;;;;5083380;28;20509;-91
2022/08/11 13:07:27;;;;;;;2.88;1.10;;;31.30;35.80;;;;;;5084046;28;20618;-91
2022/08/11 13:09:55;;;;;;;2.53;1.83;;;31.70;35.60;;;;;;5086577;28;20043;-92
2022/08/11 13:15:12;;;;;;;4.30;1.23;;;31.30;34.70;;;;;;5073672;28;20615;-92
2022/08/11 13:17:40;;;;;;;1.42;1.15;;;30.80;35.50;;;;;;5080350;28;20028;-92
2022/08/11 13:20:11;;;;;;;2.58;1.33;;;30.40;36.50;;;;;;5088211;28;20032;-92
2022/08/11 13:22:38;;;;;;;3.65;1.30;;;30.80;36.70;;;;;;5081016;28;20025;-92
2022/08/11 13:25:06;;;;;;;2.78;1.10;;;30.90;36.40;;;;;;5083638;28;20040;-93
2022/08/11 13:27:32;;;;;;;2.97;1.20;;;31.20;36.00;;;;;;5090195;28;20423;-91
2022/08/11 13:32:44;;;;;;;3.45;1.33;;;30.90;36.20;;;;;;5086442;28;20074;-90
2022/08/11 13:35:13;;;;;;;1.80;1.20;;;31.00;37.00;;;;;;5079930;28;20138;-90
2022/08/11 13:37:44;;;;;;;3.97;1.48;;;31.10;36.70;;;;;;5076758;28;20103;-92
2022/08/11 13:40:11;;;;;;;3.83;1.30;;;31.10;36.20;;;;;;5063474;28;20031;-91
2022/08/11 13:42:39;;;;;;;3.83;2.03;;;31.10;35.80;;;;;;5083747;28;20048;-91
2022/08/11 13:45:06;;;;;;;1.63;1.13;;;31.10;36.20;;;;;;5069913;28;20051;-91
2022/08/11 13:47:33;;;;;;;4.03;1.63;;;31.10;36.80;;;;;;5081831;28;20036;-92
2022/08/11 13:50:00;;;;;;;7.15;1.42;;;30.80;36.70;;;;;;5081549;28;20054;-91
2022/08/11 13:52:27;;;;;;;2.33;1.30;;;30.60;36.50;;;;;;5089807;28;20064;-90
2022/08/11 13:54:54;;;;;;;4.85;1.20;;;30.80;37.80;;;;;;5084269;28;20112;-90
2022/08/11 13:57:20;;;;;;;2.03;1.25;;;31.10;36.50;;;;;;5083629;28;20024;-91
2022/08/11 13:59:53;;;;;;;2.00;1.40;;;31.60;36.40;;;;;;5078500;28;20025;-92
2022/08/11 14:02:26;;;;;;;2.72;1.30;;;32.00;35.10;;;;;;5083817;28;20032;-92
2022/08/11 14:05:06;;;;;;;3.88;1.85;;;32.20;34.90;;;;;;5079512;28;20024;-93
2022/08/11 14:07:37;;;;;;;7.50;1.50;;;31.50;35.70;;;;;;5087241;28;20471;-92
2022/08/11 14:10:05;;;;;;;2.05;1.30;;;30.90;36.50;;;;;;5090339;28;20406;-92
2022/08/11 14:15:30;;;;;;;1.80;1.50;;;30.40;37.50;;;;;;5073713;28;20113;-93
2022/08/11 14:18:08;;;;;;;2.33;1.42;;;30.30;38.20;;;;;;5080559;28;20526;-92
2022/08/11 14:23:31;;;;;;;3.13;1.58;;;30.60;37.60;;;;;;5088855;28;20498;-94
2022/08/11 14:28:43;;;;;;;2.17;1.30;;;30.80;37.20;;;;;;5071017;28;20055;-93
2022/08/11 14:31:09;;;;;;;1.33;1.23;;;30.70;37.60;;;;;;5087296;28;20040;-92
2022/08/11 14:33:36;;;;;;;2.92;1.20;;;30.70;37.70;;;;;;5064143;28;20029;-93
2022/08/11 14:36:04;;;;;;;8.32;1.42;;;30.50;37.90;;;;;;5062769;28;20086;-93
2022/08/11 14:38:33;;;;;;;4.22;1.95;;;30.40;38.30;;;;;;5083372;28;20400;-92
2022/08/11 14:49:15;;;;;;;3.83;1.60;;;30.80;37.30;;;;;;5085812;28;20047;-92
2022/08/11 14:51:41;;;;;;;3.20;1.55;;;30.60;37.50;;;;;;5072436;28;20502;-92
2022/08/11 14:56:53;;;;;;;1.60;1.50;;;30.60;38.30;;;;;;5089713;28;20174;-94
2022/08/11 14:59:20;;;;;;;2.17;1.60;;;30.30;38.00;;;;;;5064644;28;20103;-94
2022/08/11 15:04:30;;;;;;;1.63;1.35;;;30.50;38.30;;;;;;5087408;28;20027;-94
2022/08/11 15:06:56;;;;;;;2.13;1.55;;;30.70;38.60;;;;;;5079149;28;20113;-94
2022/08/11 15:09:22;;;;;;;2.28;1.40;;;30.90;38.40;;;;;;5084586;28;20048;-93
2022/08/11 15:17:20;;;;;;;2.53;1.42;;;32.10;37.10;;;;;;5086002;28;20139;-93
2022/08/11 15:25:18;;;;;;;3.05;1.08;;;32.40;35.80;;;;;;5080115;28;20102;-96
2022/08/11 15:38:55;;;;;;;1.95;1.33;;;32.20;36.50;;;;;;5080448;28;20036;-94
2022/08/11 15:47:02;;;;;;;3.08;1.40;;;32.30;36.00;;;;;;5087085;28;19957;-93
2022/08/11 15:49:36;;;;;;;2.72;1.50;;;32.30;35.90;;;;;;5081772;28;20024;-92
2022/08/11 15:52:12;;;;;;;4.60;1.50;;;32.10;36.40;;;;;;5081525;28;20085;-91
2022/08/11 15:54:43;;;;;;;2.63;1.33;;;32.10;37.00;;;;;;5080670;28;20025;-94
2022/08/11 16:04:09;;;;;;;;;;;31.50;35.90;;;;;;5078179;28;20032;-92
2022/08/11 16:05:21;;;;;;;4.35;1.48;;;29.90;38.00;;;;;;5078781;28;20470;-92
2022/08/11 16:07:50;;;;;;;6.38;1.50;;;29.70;38.80;;;;;;5093703;28;20051;-92
2022/08/11 16:10:21;;;;;;;5.32;1.30;;;30.00;39.20;;;;;;5087356;28;20111;-93
2022/08/11 16:18:41;;;;;;;3.17;1.40;;;30.60;38.00;;;;;;5087575;28;20042;-91
2022/08/11 16:21:16;;;;;;;3.45;1.40;;;30.50;38.40;;;;;;5071188;28;20020;-92
2022/08/11 16:23:46;;;;;;;3.00;1.27;;;30.40;38.40;;;;;;5092613;28;20112;-93
2022/08/11 16:26:14;;;;;;;5.43;1.27;;;30.40;38.30;;;;;;5068973;28;20036;-92
2022/08/11 16:28:43;;;;;;;1.58;1.27;;;30.30;37.70;;;;;;5080018;28;20111;-93
2022/08/11 16:31:10;;;;;;;5.40;2.05;;;30.20;37.70;;;;;;5086216;28;20012;-91
2022/08/11 16:33:41;;;;;;;4.90;1.15;;;30.20;38.20;;;;;;5080937;28;20024;-92
2022/08/11 16:38:55;;;;;;;3.58;1.23;;;30.00;38.60;;;;;;5089703;28;20086;-91
2022/08/11 16:46:58;;;;;;;2.55;1.42;;;29.80;38.60;;;;;;5088915;28;20621;-91
2022/08/11 16:49:35;;;;;;;5.88;1.35;;;29.60;38.10;;;;;;5067887;28;20040;-92
2022/08/11 16:52:03;;;;;;;3.75;1.40;;;29.40;38.70;;;;;;5093548;28;20027;-89
2022/08/11 16:54:33;;;;;;;3.40;1.63;;;29.30;39.30;;;;;;5065626;28;20066;-91
2022/08/11 16:59:13;;;;;;;2.85;1.63;;;29.10;39.70;;;;;;5077425;28;20039;-91
2022/08/11 16:59:50;;;;;;;1.83;1.40;;;29.10;40.00;;;;;;5075800;28;20048;-88
2022/08/11 17:13:55;;;;;;;3.42;1.48;;;28.60;40.00;;;;;;5093503;28;20040;-90
2022/08/11 17:16:32;;;;;;;5.80;1.50;;;28.50;40.20;;;;;;5082159;28;20063;-89
2022/08/11 17:19:00;;;;;;;5.80;1.38;;;28.40;39.60;;;;;;5085839;28;20023;-90
2022/08/11 17:21:28;;;;;;;2.50;1.13;;;28.30;40.70;;;;;;5080376;28;20051;-90
2022/08/11 17:24:02;;;;;;;6.00;1.38;;;28.20;40.60;;;;;;5081898;28;20035;-90
2022/08/11 17:26:56;;;;;;;2.60;1.65;;;28.20;40.60;;;;;;5082579;28;20089;-91
2022/08/11 17:29:27;;;;;;;3.47;1.33;;;28.20;40.40;;;;;;5080457;28;20063;-91
2022/08/11 17:37:30;;;;;;;5.13;1.40;;;28.00;40.80;;;;;;5079001;28;20047;-91
2022/08/11 17:39:58;;;;;;;6.15;1.60;;;28.00;41.00;;;;;;5064487;28;20025;-90
2022/08/11 17:50:47;;;;;;;4.82;1.73;;;27.50;42.00;;;;;;5086220;28;20445;-90
2022/08/11 18:01:35;;;;;;;4.20;1.52;;;27.10;42.70;;;;;;5079607;28;20074;-90
2022/08/11 18:04:05;;;;;;;2.88;1.67;;;26.90;42.80;;;;;;5092125;28;20078;-90
2022/08/11 18:06:33;;;;;;;3.75;1.50;;;26.80;43.20;;;;;;5098721;28;20029;-89
